sensor_id;sensor_type;location;lat;lon;timestamp;temperature;humidity
11304;DHT22;5707;49.588;12.148;2023-07-02T00:01:45;17.70;99.90
11304;DHT22;5707;49.588;12.148;2023-07-02T00:04:13;17.70;99.90
11304;DHT22;5707;49.588;12.148;2023-07-02T00:06:47;17.70;99.90
11304;DHT22;5707;49.588;12.148;2023-07-02T00:09:14;17.70;99.90
11304;DHT22;5707;49.588;12.148;2023-07-02T00:11:41;17.70;99.90
11304;DHT22;5707;49.588;12.148;2023-07-02T00:14:08;17.70;99.90
11304;DHT22;5707;49.588;12.148;2023-07-02T00:16:35;17.70;99.90
11304;DHT22;5707;49.588;12.148;2023-07-02T00:19:01;17.70;99.90
11304;DHT22;5707;49.588;12.148;2023-07-02T00:21:26;17.70;99.90
11304;DHT22;5707;49.588;12.148;2023-07-02T00:23:53;17.80;99.90
11304;DHT22;5707;49.588;12.148;2023-07-02T00:26:19;17.70;99.90
11304;DHT22;5707;49.588;12.148;2023-07-02T00:28:45;17.70;99.90
11304;DHT22;5707;49.588;12.148;2023-07-02T00:31:10;17.70;99.90
11304;DHT22;5707;49.588;12.148;2023-07-02T00:33:36;17.70;99.90
11304;DHT22;5707;49.588;12.148;2023-07-02T00:36:01;17.70;99.90
11304;DHT22;5707;49.588;12.148;2023-07-02T00:38:27;17.70;99.90
11304;DHT22;5707;49.588;12.148;2023-07-02T00:40:52;17.70;99.90
11304;DHT22;5707;49.588;12.148;2023-07-02T00:43:18;17.60;99.90
11304;DHT22;5707;49.588;12.148;2023-07-02T00:45:44;17.60;99.90
11304;DHT22;5707;49.588;12.148;2023-07-02T00:48:10;17.60;99.90
11304;DHT22;5707;49.588;12.148;2023-07-02T00:50:36;17.60;99.90
11304;DHT22;5707;49.588;12.148;2023-07-02T00:53:02;17.60;99.90
11304;DHT22;5707;49.588;12.148;2023-07-02T00:55:28;17.60;99.90
11304;DHT22;5707;49.588;12.148;2023-07-02T00:57:53;17.60;99.90
11304;DHT22;5707;49.588;12.148;2023-07-02T01:00:22;17.60;99.90
11304;DHT22;5707;49.588;12.148;2023-07-02T01:02:54;17.60;99.90
11304;DHT22;5707;49.588;12.148;2023-07-02T01:05:25;17.60;99.90
11304;DHT22;5707;49.588;12.148;2023-07-02T01:07:51;17.60;99.90
11304;DHT22;5707;49.588;12.148;2023-07-02T01:10:16;17.60;99.90
11304;DHT22;5707;49.588;12.148;2023-07-02T01:12:43;17.50;99.90
11304;DHT22;5707;49.588;12.148;2023-07-02T01:15:09;17.50;99.90
11304;DHT22;5707;49.588;12.148;2023-07-02T01:17:35;17.50;99.90
11304;DHT22;5707;49.588;12.148;2023-07-02T01:20:10;17.50;99.90
11304;DHT22;5707;49.588;12.148;2023-07-02T01:22:36;17.40;99.90
11304;DHT22;5707;49.588;12.148;2023-07-02T01:25:02;17.40;99.90
11304;DHT22;5707;49.588;12.148;2023-07-02T01:27:29;17.40;99.90
11304;DHT22;5707;49.588;12.148;2023-07-02T01:29:55;17.40;99.90
11304;DHT22;5707;49.588;12.148;2023-07-02T01:32:22;17.40;99.90
11304;DHT22;5707;49.588;12.148;2023-07-02T01:34:48;17.30;99.90
11304;DHT22;5707;49.588;12.148;2023-07-02T01:37:17;17.30;99.90
11304;DHT22;5707;49.588;12.148;2023-07-02T01:39:44;17.30;99.90
11304;DHT22;5707;49.588;12.148;2023-07-02T01:42:12;17.20;99.90
11304;DHT22;5707;49.588;12.148;2023-07-02T01:44:38;17.20;99.90
11304;DHT22;5707;49.588;12.148;2023-07-02T01:47:04;17.10;99.90
11304;DHT22;5707;49.588;12.148;2023-07-02T01:49:30;17.00;99.90
11304;DHT22;5707;49.588;12.148;2023-07-02T01:51:56;16.90;99.90
11304;DHT22;5707;49.588;12.148;2023-07-02T01:54:24;16.70;99.90
11304;DHT22;5707;49.588;12.148;2023-07-02T01:56:52;16.50;99.90
11304;DHT22;5707;49.588;12.148;2023-07-02T01:59:18;16.30;99.90
11304;DHT22;5707;49.588;12.148;2023-07-02T02:01:44;16.20;99.90
11304;DHT22;5707;49.588;12.148;2023-07-02T02:04:10;16.10;99.90
11304;DHT22;5707;49.588;12.148;2023-07-02T02:06:37;16.00;99.90
11304;DHT22;5707;49.588;12.148;2023-07-02T02:09:03;15.90;99.90
11304;DHT22;5707;49.588;12.148;2023-07-02T02:11:30;15.80;99.90
11304;DHT22;5707;49.588;12.148;2023-07-02T02:13:56;15.70;99.90
11304;DHT22;5707;49.588;12.148;2023-07-02T02:16:22;15.70;99.90
11304;DHT22;5707;49.588;12.148;2023-07-02T02:18:47;15.50;99.90
11304;DHT22;5707;49.588;12.148;2023-07-02T02:21:20;15.60;99.90
11304;DHT22;5707;49.588;12.148;2023-07-02T02:23:46;15.80;99.90
11304;DHT22;5707;49.588;12.148;2023-07-02T02:26:12;15.90;99.90
11304;DHT22;5707;49.588;12.148;2023-07-02T02:28:38;16.00;99.90
11304;DHT22;5707;49.588;12.148;2023-07-02T02:31:03;16.20;99.90
11304;DHT22;5707;49.588;12.148;2023-07-02T02:33:29;16.30;99.90
11304;DHT22;5707;49.588;12.148;2023-07-02T02:35:55;16.40;99.90
11304;DHT22;5707;49.588;12.148;2023-07-02T02:38:20;16.50;99.90
11304;DHT22;5707;49.588;12.148;2023-07-02T02:40:46;16.50;99.90
11304;DHT22;5707;49.588;12.148;2023-07-02T02:43:11;16.60;99.90
11304;DHT22;5707;49.588;12.148;2023-07-02T02:45:38;16.60;99.90
11304;DHT22;5707;49.588;12.148;2023-07-02T02:48:04;16.60;99.90
11304;DHT22;5707;49.588;12.148;2023-07-02T02:50:29;16.60;99.90
11304;DHT22;5707;49.588;12.148;2023-07-02T02:52:55;16.50;99.90
11304;DHT22;5707;49.588;12.148;2023-07-02T02:55:20;16.60;99.90
11304;DHT22;5707;49.588;12.148;2023-07-02T02:57:46;16.60;99.90
11304;DHT22;5707;49.588;12.148;2023-07-02T03:00:12;16.60;99.90
11304;DHT22;5707;49.588;12.148;2023-07-02T03:02:38;16.60;99.90
11304;DHT22;5707;49.588;12.148;2023-07-02T03:05:05;16.70;99.90
11304;DHT22;5707;49.588;12.148;2023-07-02T03:07:32;16.70;99.90
11304;DHT22;5707;49.588;12.148;2023-07-02T03:09:57;16.70;99.90
11304;DHT22;5707;49.588;12.148;2023-07-02T03:12:24;16.70;99.90
11304;DHT22;5707;49.588;12.148;2023-07-02T03:14:50;16.70;99.90
11304;DHT22;5707;49.588;12.148;2023-07-02T03:17:20;16.70;99.90
11304;DHT22;5707;49.588;12.148;2023-07-02T03:19:45;16.70;99.90
11304;DHT22;5707;49.588;12.148;2023-07-02T03:22:11;16.50;99.90
11304;DHT22;5707;49.588;12.148;2023-07-02T03:24:37;16.30;99.90
11304;DHT22;5707;49.588;12.148;2023-07-02T03:27:03;16.10;99.90
11304;DHT22;5707;49.588;12.148;2023-07-02T03:29:28;16.00;99.90
11304;DHT22;5707;49.588;12.148;2023-07-02T03:31:54;15.80;99.90
11304;DHT22;5707;49.588;12.148;2023-07-02T03:34:20;15.70;99.90
11304;DHT22;5707;49.588;12.148;2023-07-02T03:36:47;15.60;99.90
11304;DHT22;5707;49.588;12.148;2023-07-02T03:39:13;15.60;99.90
11304;DHT22;5707;49.588;12.148;2023-07-02T03:41:38;15.50;99.90
11304;DHT22;5707;49.588;12.148;2023-07-02T03:44:04;15.40;99.90
11304;DHT22;5707;49.588;12.148;2023-07-02T03:46:30;15.40;99.90
11304;DHT22;5707;49.588;12.148;2023-07-02T03:48:56;15.40;99.90
11304;DHT22;5707;49.588;12.148;2023-07-02T03:51:22;15.40;99.90
11304;DHT22;5707;49.588;12.148;2023-07-02T03:53:48;15.50;99.90
11304;DHT22;5707;49.588;12.148;2023-07-02T03:56:13;15.50;99.90
11304;DHT22;5707;49.588;12.148;2023-07-02T03:58:42;15.60;99.90
11304;DHT22;5707;49.588;12.148;2023-07-02T04:01:08;15.60;99.90
11304;DHT22;5707;49.588;12.148;2023-07-02T04:03:33;15.70;99.90
11304;DHT22;5707;49.588;12.148;2023-07-02T04:05:59;15.70;99.90
11304;DHT22;5707;49.588;12.148;2023-07-02T04:08:25;15.70;99.90
11304;DHT22;5707;49.588;12.148;2023-07-02T04:10:50;15.80;99.90
11304;DHT22;5707;49.588;12.148;2023-07-02T04:13:16;15.90;99.90
11304;DHT22;5707;49.588;12.148;2023-07-02T04:15:42;16.20;99.90
11304;DHT22;5707;49.588;12.148;2023-07-02T04:18:08;16.40;99.90
11304;DHT22;5707;49.588;12.148;2023-07-02T04:20:33;16.50;99.90
11304;DHT22;5707;49.588;12.148;2023-07-02T04:22:59;16.60;99.90
11304;DHT22;5707;49.588;12.148;2023-07-02T04:25:25;16.80;99.90
11304;DHT22;5707;49.588;12.148;2023-07-02T04:27:50;16.90;99.90
11304;DHT22;5707;49.588;12.148;2023-07-02T04:30:16;17.10;99.90
11304;DHT22;5707;49.588;12.148;2023-07-02T04:32:41;17.50;99.90
11304;DHT22;5707;49.588;12.148;2023-07-02T04:35:08;17.80;99.90
11304;DHT22;5707;49.588;12.148;2023-07-02T04:37:34;18.00;99.90
11304;DHT22;5707;49.588;12.148;2023-07-02T04:40:00;18.20;99.90
11304;DHT22;5707;49.588;12.148;2023-07-02T04:42:26;18.40;99.90
11304;DHT22;5707;49.588;12.148;2023-07-02T04:44:56;18.60;99.90
11304;DHT22;5707;49.588;12.148;2023-07-02T04:47:21;18.70;99.90
11304;DHT22;5707;49.588;12.148;2023-07-02T04:49:47;18.60;99.90
11304;DHT22;5707;49.588;12.148;2023-07-02T04:52:13;19.70;99.90
11304;DHT22;5707;49.588;12.148;2023-07-02T04:54:38;21.10;99.90
11304;DHT22;5707;49.588;12.148;2023-07-02T04:57:04;22.20;99.90
11304;DHT22;5707;49.588;12.148;2023-07-02T04:59:29;23.20;99.90
11304;DHT22;5707;49.588;12.148;2023-07-02T05:01:55;23.10;99.90
11304;DHT22;5707;49.588;12.148;2023-07-02T05:04:21;22.50;99.90
11304;DHT22;5707;49.588;12.148;2023-07-02T05:06:46;21.80;99.90
11304;DHT22;5707;49.588;12.148;2023-07-02T05:09:12;21.10;99.90
11304;DHT22;5707;49.588;12.148;2023-07-02T05:11:37;20.60;99.90
11304;DHT22;5707;49.588;12.148;2023-07-02T05:14:03;20.20;99.90
11304;DHT22;5707;49.588;12.148;2023-07-02T05:16:28;19.80;99.90
11304;DHT22;5707;49.588;12.148;2023-07-02T05:18:54;19.50;99.90
11304;DHT22;5707;49.588;12.148;2023-07-02T05:21:20;19.60;99.90
11304;DHT22;5707;49.588;12.148;2023-07-02T05:23:47;19.90;99.90
11304;DHT22;5707;49.588;12.148;2023-07-02T05:26:12;20.20;99.90
11304;DHT22;5707;49.588;12.148;2023-07-02T05:28:38;20.20;99.90
11304;DHT22;5707;49.588;12.148;2023-07-02T05:31:03;19.90;99.90
11304;DHT22;5707;49.588;12.148;2023-07-02T05:33:29;19.60;99.90
11304;DHT22;5707;49.588;12.148;2023-07-02T05:35:56;19.30;99.90
11304;DHT22;5707;49.588;12.148;2023-07-02T05:38:22;19.20;99.90
11304;DHT22;5707;49.588;12.148;2023-07-02T05:40:47;19.00;99.90
11304;DHT22;5707;49.588;12.148;2023-07-02T05:43:13;19.10;99.90
11304;DHT22;5707;49.588;12.148;2023-07-02T05:45:39;19.10;99.90
11304;DHT22;5707;49.588;12.148;2023-07-02T05:48:04;18.90;99.90
11304;DHT22;5707;49.588;12.148;2023-07-02T05:50:30;18.90;99.90
11304;DHT22;5707;49.588;12.148;2023-07-02T05:52:55;18.90;99.90
11304;DHT22;5707;49.588;12.148;2023-07-02T05:55:21;19.10;99.90
11304;DHT22;5707;49.588;12.148;2023-07-02T05:57:47;19.50;99.90
11304;DHT22;5707;49.588;12.148;2023-07-02T06:00:12;19.70;99.90
11304;DHT22;5707;49.588;12.148;2023-07-02T06:02:38;20.00;99.90
11304;DHT22;5707;49.588;12.148;2023-07-02T06:05:04;20.10;99.90
11304;DHT22;5707;49.588;12.148;2023-07-02T06:07:30;20.10;99.90
11304;DHT22;5707;49.588;12.148;2023-07-02T06:09:55;20.40;99.90
11304;DHT22;5707;49.588;12.148;2023-07-02T06:12:21;20.80;99.90
11304;DHT22;5707;49.588;12.148;2023-07-02T06:14:47;21.00;99.90
11304;DHT22;5707;49.588;12.148;2023-07-02T06:17:13;21.20;99.90
11304;DHT22;5707;49.588;12.148;2023-07-02T06:19:39;21.10;99.90
11304;DHT22;5707;49.588;12.148;2023-07-02T06:22:05;21.00;99.90
11304;DHT22;5707;49.588;12.148;2023-07-02T06:24:31;21.10;99.90
11304;DHT22;5707;49.588;12.148;2023-07-02T06:26:56;21.20;99.90
11304;DHT22;5707;49.588;12.148;2023-07-02T06:29:23;21.00;99.90
11304;DHT22;5707;49.588;12.148;2023-07-02T06:31:49;20.90;99.90
11304;DHT22;5707;49.588;12.148;2023-07-02T06:34:15;20.60;99.90
11304;DHT22;5707;49.588;12.148;2023-07-02T06:36:41;20.40;99.90
11304;DHT22;5707;49.588;12.148;2023-07-02T06:39:07;20.20;99.90
11304;DHT22;5707;49.588;12.148;2023-07-02T06:41:35;20.20;99.90
11304;DHT22;5707;49.588;12.148;2023-07-02T06:44:00;20.20;98.70
11304;DHT22;5707;49.588;12.148;2023-07-02T06:46:26;20.30;98.80
11304;DHT22;5707;49.588;12.148;2023-07-02T06:48:51;20.20;96.60
11304;DHT22;5707;49.588;12.148;2023-07-02T06:51:17;20.30;97.60
11304;DHT22;5707;49.588;12.148;2023-07-02T06:53:44;20.60;94.50
11304;DHT22;5707;49.588;12.148;2023-07-02T06:56:10;20.80;92.90
11304;DHT22;5707;49.588;12.148;2023-07-02T06:58:36;20.90;91.30
11304;DHT22;5707;49.588;12.148;2023-07-02T07:01:02;21.10;90.40
11304;DHT22;5707;49.588;12.148;2023-07-02T07:03:28;21.30;90.20
11304;DHT22;5707;49.588;12.148;2023-07-02T07:05:53;21.40;90.70
11304;DHT22;5707;49.588;12.148;2023-07-02T07:08:19;21.50;87.60
11304;DHT22;5707;49.588;12.148;2023-07-02T07:10:45;21.70;84.70
11304;DHT22;5707;49.588;12.148;2023-07-02T07:13:11;21.80;84.90
11304;DHT22;5707;49.588;12.148;2023-07-02T07:15:37;22.00;85.80
11304;DHT22;5707;49.588;12.148;2023-07-02T07:18:03;22.20;82.70
11304;DHT22;5707;49.588;12.148;2023-07-02T07:20:32;22.40;80.40
11304;DHT22;5707;49.588;12.148;2023-07-02T07:22:58;22.50;85.00
11304;DHT22;5707;49.588;12.148;2023-07-02T07:25:23;22.90;88.20
11304;DHT22;5707;49.588;12.148;2023-07-02T07:27:49;23.00;80.20
11304;DHT22;5707;49.588;12.148;2023-07-02T07:30:15;22.70;81.20
11304;DHT22;5707;49.588;12.148;2023-07-02T07:32:41;22.60;78.00
11304;DHT22;5707;49.588;12.148;2023-07-02T07:35:07;22.30;80.90
11304;DHT22;5707;49.588;12.148;2023-07-02T07:37:33;21.80;81.60
11304;DHT22;5707;49.588;12.148;2023-07-02T07:39:58;21.40;85.20
11304;DHT22;5707;49.588;12.148;2023-07-02T07:42:24;21.10;90.00
11304;DHT22;5707;49.588;12.148;2023-07-02T07:44:50;20.80;93.00
11304;DHT22;5707;49.588;12.148;2023-07-02T07:47:15;20.70;93.90
11304;DHT22;5707;49.588;12.148;2023-07-02T07:49:41;20.50;94.90
11304;DHT22;5707;49.588;12.148;2023-07-02T07:52:07;20.50;96.00
11304;DHT22;5707;49.588;12.148;2023-07-02T07:54:33;20.20;95.10
11304;DHT22;5707;49.588;12.148;2023-07-02T07:57:01;20.00;97.60
11304;DHT22;5707;49.588;12.148;2023-07-02T07:59:26;20.40;97.30
11304;DHT22;5707;49.588;12.148;2023-07-02T08:01:52;21.10;97.60
11304;DHT22;5707;49.588;12.148;2023-07-02T08:04:17;21.70;95.20
11304;DHT22;5707;49.588;12.148;2023-07-02T08:06:43;22.00;94.30
11304;DHT22;5707;49.588;12.148;2023-07-02T08:09:08;22.30;91.20
11304;DHT22;5707;49.588;12.148;2023-07-02T08:11:35;22.30;90.60
11304;DHT22;5707;49.588;12.148;2023-07-02T08:14:00;22.40;92.50
11304;DHT22;5707;49.588;12.148;2023-07-02T08:16:26;22.60;90.00
11304;DHT22;5707;49.588;12.148;2023-07-02T08:18:51;22.80;89.30
11304;DHT22;5707;49.588;12.148;2023-07-02T08:21:17;22.90;84.70
11304;DHT22;5707;49.588;12.148;2023-07-02T08:23:43;22.70;85.30
11304;DHT22;5707;49.588;12.148;2023-07-02T08:26:09;22.60;82.20
11304;DHT22;5707;49.588;12.148;2023-07-02T08:28:36;22.70;88.30
11304;DHT22;5707;49.588;12.148;2023-07-02T08:31:03;23.10;80.10
11304;DHT22;5707;49.588;12.148;2023-07-02T08:33:29;22.80;77.40
11304;DHT22;5707;49.588;12.148;2023-07-02T08:35:55;22.20;78.10
11304;DHT22;5707;49.588;12.148;2023-07-02T08:38:21;22.10;81.10
11304;DHT22;5707;49.588;12.148;2023-07-02T08:40:47;21.80;85.60
11304;DHT22;5707;49.588;12.148;2023-07-02T08:43:14;21.50;86.80
11304;DHT22;5707;49.588;12.148;2023-07-02T08:45:41;21.60;88.40
11304;DHT22;5707;49.588;12.148;2023-07-02T08:48:08;21.80;83.40
11304;DHT22;5707;49.588;12.148;2023-07-02T08:50:33;22.10;84.00
11304;DHT22;5707;49.588;12.148;2023-07-02T08:52:59;22.80;86.00
11304;DHT22;5707;49.588;12.148;2023-07-02T08:55:24;23.20;78.10
11304;DHT22;5707;49.588;12.148;2023-07-02T08:57:53;23.20;80.80
11304;DHT22;5707;49.588;12.148;2023-07-02T09:00:19;23.20;71.20
11304;DHT22;5707;49.588;12.148;2023-07-02T09:02:46;23.30;70.20
11304;DHT22;5707;49.588;12.148;2023-07-02T09:05:12;23.20;73.70
11304;DHT22;5707;49.588;12.148;2023-07-02T09:07:49;22.80;74.20
11304;DHT22;5707;49.588;12.148;2023-07-02T09:10:30;22.60;72.80
11304;DHT22;5707;49.588;12.148;2023-07-02T09:13:04;22.40;80.90
11304;DHT22;5707;49.588;12.148;2023-07-02T09:15:36;22.40;83.30
11304;DHT22;5707;49.588;12.148;2023-07-02T09:18:01;22.30;72.50
11304;DHT22;5707;49.588;12.148;2023-07-02T09:20:33;22.00;70.80
11304;DHT22;5707;49.588;12.148;2023-07-02T09:22:59;22.10;69.90
11304;DHT22;5707;49.588;12.148;2023-07-02T09:25:38;22.30;72.90
11304;DHT22;5707;49.588;12.148;2023-07-02T09:28:19;23.10;69.50
11304;DHT22;5707;49.588;12.148;2023-07-02T09:30:56;23.50;75.70
11304;DHT22;5707;49.588;12.148;2023-07-02T09:33:25;23.70;69.50
11304;DHT22;5707;49.588;12.148;2023-07-02T09:35:51;23.50;63.40
11304;DHT22;5707;49.588;12.148;2023-07-02T09:38:21;23.50;62.70
11304;DHT22;5707;49.588;12.148;2023-07-02T09:40:49;23.60;61.90
11304;DHT22;5707;49.588;12.148;2023-07-02T09:43:18;24.20;60.00
11304;DHT22;5707;49.588;12.148;2023-07-02T09:45:46;24.90;58.90
11304;DHT22;5707;49.588;12.148;2023-07-02T09:48:16;25.50;59.50
11304;DHT22;5707;49.588;12.148;2023-07-02T09:50:47;25.50;62.50
11304;DHT22;5707;49.588;12.148;2023-07-02T09:53:13;25.10;52.40
11304;DHT22;5707;49.588;12.148;2023-07-02T09:55:41;24.40;53.90
11304;DHT22;5707;49.588;12.148;2023-07-02T09:58:07;23.70;56.40
11304;DHT22;5707;49.588;12.148;2023-07-02T10:00:33;23.10;58.60
11304;DHT22;5707;49.588;12.148;2023-07-02T10:02:58;23.20;60.90
11304;DHT22;5707;49.588;12.148;2023-07-02T10:05:26;23.60;64.40
11304;DHT22;5707;49.588;12.148;2023-07-02T10:07:52;23.70;59.10
11304;DHT22;5707;49.588;12.148;2023-07-02T10:10:31;23.50;60.40
11304;DHT22;5707;49.588;12.148;2023-07-02T10:12:57;23.40;60.30
11304;DHT22;5707;49.588;12.148;2023-07-02T10:15:30;23.60;61.50
11304;DHT22;5707;49.588;12.148;2023-07-02T10:17:57;24.30;56.60
11304;DHT22;5707;49.588;12.148;2023-07-02T10:20:33;25.10;51.60
11304;DHT22;5707;49.588;12.148;2023-07-02T10:22:59;25.40;52.30
11304;DHT22;5707;49.588;12.148;2023-07-02T10:25:28;25.40;49.80
11304;DHT22;5707;49.588;12.148;2023-07-02T10:27:54;25.60;52.10
11304;DHT22;5707;49.588;12.148;2023-07-02T10:30:34;26.10;52.00
11304;DHT22;5707;49.588;12.148;2023-07-02T10:33:11;25.80;49.70
11304;DHT22;5707;49.588;12.148;2023-07-02T10:35:38;25.50;46.40
11304;DHT22;5707;49.588;12.148;2023-07-02T10:38:05;25.60;50.90
11304;DHT22;5707;49.588;12.148;2023-07-02T10:40:32;26.20;50.50
11304;DHT22;5707;49.588;12.148;2023-07-02T10:42:58;26.40;46.60
11304;DHT22;5707;49.588;12.148;2023-07-02T10:45:31;26.30;45.90
11304;DHT22;5707;49.588;12.148;2023-07-02T10:47:58;26.00;47.70
11304;DHT22;5707;49.588;12.148;2023-07-02T10:50:23;25.50;46.90
11304;DHT22;5707;49.588;12.148;2023-07-02T10:52:49;25.40;50.10
11304;DHT22;5707;49.588;12.148;2023-07-02T10:55:20;25.80;51.40
11304;DHT22;5707;49.588;12.148;2023-07-02T10:57:46;26.00;47.50
11304;DHT22;5707;49.588;12.148;2023-07-02T11:00:12;26.00;48.10
11304;DHT22;5707;49.588;12.148;2023-07-02T11:02:38;25.90;47.00
11304;DHT22;5707;49.588;12.148;2023-07-02T11:05:07;26.10;45.80
11304;DHT22;5707;49.588;12.148;2023-07-02T11:07:38;26.60;48.90
11304;DHT22;5707;49.588;12.148;2023-07-02T11:10:05;27.20;42.40
11304;DHT22;5707;49.588;12.148;2023-07-02T11:12:31;27.50;40.60
11304;DHT22;5707;49.588;12.148;2023-07-02T11:15:10;27.50;40.60
11304;DHT22;5707;49.588;12.148;2023-07-02T11:17:36;27.00;38.30
11304;DHT22;5707;49.588;12.148;2023-07-02T11:20:03;26.60;40.40
11304;DHT22;5707;49.588;12.148;2023-07-02T11:22:34;26.80;42.70
11304;DHT22;5707;49.588;12.148;2023-07-02T11:25:12;27.10;39.20
11304;DHT22;5707;49.588;12.148;2023-07-02T11:27:38;27.10;43.20
11304;DHT22;5707;49.588;12.148;2023-07-02T11:30:05;27.20;41.20
11304;DHT22;5707;49.588;12.148;2023-07-02T11:32:30;27.00;38.50
11304;DHT22;5707;49.588;12.148;2023-07-02T11:34:56;26.70;39.00
11304;DHT22;5707;49.588;12.148;2023-07-02T11:37:22;26.60;41.30
11304;DHT22;5707;49.588;12.148;2023-07-02T11:39:48;26.70;40.80
11304;DHT22;5707;49.588;12.148;2023-07-02T11:42:14;26.70;38.60
11304;DHT22;5707;49.588;12.148;2023-07-02T11:44:40;27.00;40.50
11304;DHT22;5707;49.588;12.148;2023-07-02T11:47:06;27.60;41.10
11304;DHT22;5707;49.588;12.148;2023-07-02T11:49:32;28.00;38.40
11304;DHT22;5707;49.588;12.148;2023-07-02T11:51:57;28.20;35.00
11304;DHT22;5707;49.588;12.148;2023-07-02T11:54:23;28.40;38.70
11304;DHT22;5707;49.588;12.148;2023-07-02T11:56:48;28.70;33.80
11304;DHT22;5707;49.588;12.148;2023-07-02T11:59:14;28.80;36.50
11304;DHT22;5707;49.588;12.148;2023-07-02T12:01:39;28.90;36.50
11304;DHT22;5707;49.588;12.148;2023-07-02T12:04:09;29.00;35.00
11304;DHT22;5707;49.588;12.148;2023-07-02T12:06:37;28.90;33.40
11304;DHT22;5707;49.588;12.148;2023-07-02T12:09:02;28.30;34.30
11304;DHT22;5707;49.588;12.148;2023-07-02T12:11:28;27.90;35.00
11304;DHT22;5707;49.588;12.148;2023-07-02T12:13:53;28.10;36.60
11304;DHT22;5707;49.588;12.148;2023-07-02T12:16:19;28.10;34.00
11304;DHT22;5707;49.588;12.148;2023-07-02T12:18:45;28.40;34.20
11304;DHT22;5707;49.588;12.148;2023-07-02T12:21:10;28.80;37.00
11304;DHT22;5707;49.588;12.148;2023-07-02T12:23:36;28.70;36.10
11304;DHT22;5707;49.588;12.148;2023-07-02T12:26:02;28.60;32.90
11304;DHT22;5707;49.588;12.148;2023-07-02T12:28:27;28.30;35.00
11304;DHT22;5707;49.588;12.148;2023-07-02T12:30:53;28.30;35.60
11304;DHT22;5707;49.588;12.148;2023-07-02T12:33:18;28.20;33.30
11304;DHT22;5707;49.588;12.148;2023-07-02T12:35:44;27.50;34.60
11304;DHT22;5707;49.588;12.148;2023-07-02T12:38:10;27.00;36.30
11304;DHT22;5707;49.588;12.148;2023-07-02T12:40:35;26.60;36.90
11304;DHT22;5707;49.588;12.148;2023-07-02T12:43:01;26.30;38.60
11304;DHT22;5707;49.588;12.148;2023-07-02T12:45:26;26.60;40.60
11304;DHT22;5707;49.588;12.148;2023-07-02T12:47:52;26.90;38.30
11304;DHT22;5707;49.588;12.148;2023-07-02T12:50:18;26.90;37.80
11304;DHT22;5707;49.588;12.148;2023-07-02T12:52:43;26.30;37.60
11304;DHT22;5707;49.588;12.148;2023-07-02T12:55:09;26.00;38.30
11304;DHT22;5707;49.588;12.148;2023-07-02T12:57:35;25.90;36.30
11304;DHT22;5707;49.588;12.148;2023-07-02T13:00:00;26.00;37.00
11304;DHT22;5707;49.588;12.148;2023-07-02T13:02:26;26.20;37.20
11304;DHT22;5707;49.588;12.148;2023-07-02T13:04:52;26.50;37.10
11304;DHT22;5707;49.588;12.148;2023-07-02T13:07:17;26.90;35.20
11304;DHT22;5707;49.588;12.148;2023-07-02T13:09:43;26.90;39.00
11304;DHT22;5707;49.588;12.148;2023-07-02T13:12:10;26.60;39.90
11304;DHT22;5707;49.588;12.148;2023-07-02T13:14:35;26.60;41.70
11304;DHT22;5707;49.588;12.148;2023-07-02T13:17:01;26.60;38.20
11304;DHT22;5707;49.588;12.148;2023-07-02T13:19:28;26.60;36.70
11304;DHT22;5707;49.588;12.148;2023-07-02T13:21:54;26.80;35.70
11304;DHT22;5707;49.588;12.148;2023-07-02T13:24:19;26.70;35.00
11304;DHT22;5707;49.588;12.148;2023-07-02T13:26:45;27.10;33.50
11304;DHT22;5707;49.588;12.148;2023-07-02T13:29:11;27.20;37.50
11304;DHT22;5707;49.588;12.148;2023-07-02T13:31:36;27.50;32.90
11304;DHT22;5707;49.588;12.148;2023-07-02T13:34:02;28.10;30.80
11304;DHT22;5707;49.588;12.148;2023-07-02T13:36:27;28.60;29.80
11304;DHT22;5707;49.588;12.148;2023-07-02T13:38:56;28.90;29.70
11304;DHT22;5707;49.588;12.148;2023-07-02T13:41:22;28.70;29.50
11304;DHT22;5707;49.588;12.148;2023-07-02T13:43:47;28.50;29.20
11304;DHT22;5707;49.588;12.148;2023-07-02T13:46:13;28.50;30.80
11304;DHT22;5707;49.588;12.148;2023-07-02T13:48:38;28.70;28.10
11304;DHT22;5707;49.588;12.148;2023-07-02T13:51:04;28.90;29.20
11304;DHT22;5707;49.588;12.148;2023-07-02T13:53:30;28.60;28.60
11304;DHT22;5707;49.588;12.148;2023-07-02T13:55:55;27.90;29.90
11304;DHT22;5707;49.588;12.148;2023-07-02T13:58:22;27.00;27.90
11304;DHT22;5707;49.588;12.148;2023-07-02T14:00:48;26.60;31.20
11304;DHT22;5707;49.588;12.148;2023-07-02T14:03:14;26.90;29.00
11304;DHT22;5707;49.588;12.148;2023-07-02T14:05:40;27.20;31.30
11304;DHT22;5707;49.588;12.148;2023-07-02T14:08:05;27.40;29.70
11304;DHT22;5707;49.588;12.148;2023-07-02T14:10:31;27.50;29.60
11304;DHT22;5707;49.588;12.148;2023-07-02T14:12:57;27.30;27.50
11304;DHT22;5707;49.588;12.148;2023-07-02T14:15:24;27.50;27.60
11304;DHT22;5707;49.588;12.148;2023-07-02T14:17:50;28.00;29.70
11304;DHT22;5707;49.588;12.148;2023-07-02T14:20:16;28.20;24.80
11304;DHT22;5707;49.588;12.148;2023-07-02T14:22:41;28.50;28.30
11304;DHT22;5707;49.588;12.148;2023-07-02T14:25:07;28.60;27.30
11304;DHT22;5707;49.588;12.148;2023-07-02T14:27:33;28.20;25.80
11304;DHT22;5707;49.588;12.148;2023-07-02T14:29:58;27.50;25.40
11304;DHT22;5707;49.588;12.148;2023-07-02T14:32:26;27.60;27.30
11304;DHT22;5707;49.588;12.148;2023-07-02T14:34:51;28.10;27.30
11304;DHT22;5707;49.588;12.148;2023-07-02T14:37:17;28.70;27.00
11304;DHT22;5707;49.588;12.148;2023-07-02T14:39:42;29.10;27.80
11304;DHT22;5707;49.588;12.148;2023-07-02T14:42:08;29.20;25.20
11304;DHT22;5707;49.588;12.148;2023-07-02T14:44:33;28.90;25.10
11304;DHT22;5707;49.588;12.148;2023-07-02T14:46:59;28.80;24.90
11304;DHT22;5707;49.588;12.148;2023-07-02T14:49:24;29.20;24.80
11304;DHT22;5707;49.588;12.148;2023-07-02T14:51:51;29.50;26.40
11304;DHT22;5707;49.588;12.148;2023-07-02T14:54:17;29.70;23.70
11304;DHT22;5707;49.588;12.148;2023-07-02T14:56:43;29.90;22.10
11304;DHT22;5707;49.588;12.148;2023-07-02T14:59:08;29.90;21.80
11304;DHT22;5707;49.588;12.148;2023-07-02T15:01:34;29.70;20.60
11304;DHT22;5707;49.588;12.148;2023-07-02T15:04:00;28.80;23.40
11304;DHT22;5707;49.588;12.148;2023-07-02T15:06:25;28.10;23.30
11304;DHT22;5707;49.588;12.148;2023-07-02T15:08:51;28.40;23.80
11304;DHT22;5707;49.588;12.148;2023-07-02T15:11:18;28.80;23.50
11304;DHT22;5707;49.588;12.148;2023-07-02T15:13:44;28.90;24.00
11304;DHT22;5707;49.588;12.148;2023-07-02T15:16:11;28.60;23.70
11304;DHT22;5707;49.588;12.148;2023-07-02T15:18:38;28.60;25.50
11304;DHT22;5707;49.588;12.148;2023-07-02T15:21:03;28.40;25.10
11304;DHT22;5707;49.588;12.148;2023-07-02T15:23:30;28.30;23.50
11304;DHT22;5707;49.588;12.148;2023-07-02T15:25:58;28.00;24.90